createdAt,value
2017-07-04T00:00:43.864Z,75.15
2017-07-04T00:01:43.855Z,74.99
2017-07-04T00:02:43.845Z,75.44
2017-07-04T00:03:43.860Z,75.92
2017-07-04T00:04:43.857Z,75.47
2017-07-04T00:05:43.861Z,75.70
2017-07-04T00:06:43.872Z,75.89
2017-07-04T00:07:43.794Z,76.02
2017-07-04T00:08:43.877Z,76.18
2017-07-04T00:09:43.877Z,76.26
2017-07-04T00:10:43.873Z,76.26
2017-07-04T00:11:43.885Z,76.28
2017-07-04T00:12:43.820Z,77.04
2017-07-04T00:13:43.802Z,76.57
2017-07-04T00:14:43.880Z,77.09
2017-07-04T00:15:43.885Z,77.17
2017-07-04T00:16:43.879Z,77.04
2017-07-04T00:17:43.870Z,77.23
2017-07-04T00:18:43.882Z,77.39
2017-07-04T00:19:43.986Z,77.75
2017-07-04T00:20:43.872Z,77.91
2017-07-04T00:21:43.868Z,78.47
2017-07-04T00:22:43.874Z,78.25
2017-07-04T00:23:43.873Z,78.44
2017-07-04T00:24:43.870Z,78.36
2017-07-04T00:25:43.868Z,78.78
2017-07-04T00:26:43.873Z,78.70
2017-07-04T00:27:43.901Z,79.07
2017-07-04T00:28:43.824Z,80.10
2017-07-04T00:29:43.890Z,79.81
2017-07-04T00:30:43.888Z,79.81
2017-07-04T00:31:43.902Z,79.91
2017-07-04T00:32:43.824Z,79.79
2017-07-04T00:33:43.887Z,79.49
2017-07-04T00:34:43.889Z,79.89
2017-07-04T00:35:43.886Z,79.97
2017-07-04T00:36:43.898Z,80.44
2017-07-04T00:37:43.807Z,80.05
2017-07-04T00:38:43.895Z,80.47
2017-07-04T00:39:43.862Z,80.36
2017-07-04T00:40:43.894Z,80.39
2017-07-04T00:41:43.894Z,80.15
2017-07-04T00:42:43.812Z,80.41
2017-07-04T00:43:43.896Z,80.57
2017-07-04T00:44:43.886Z,80.79
2017-07-04T00:45:43.858Z,80.41
2017-07-04T00:46:43.815Z,80.57
2017-07-04T00:47:43.870Z,80.52
2017-07-04T00:48:43.869Z,80.79
2017-07-04T00:49:43.873Z,80.97
2017-07-04T00:50:43.873Z,80.92
2017-07-04T00:51:43.874Z,80.89
2017-07-04T00:52:43.874Z,80.97
2017-07-04T00:53:43.877Z,81.24
2017-07-04T00:54:43.874Z,81.37
2017-07-04T00:55:43.876Z,81.24
2017-07-04T00:56:43.873Z,81.18
2017-07-04T00:57:43.906Z,81.71
2017-07-04T00:58:43.913Z,81.79
2017-07-04T00:59:43.907Z,81.63
2017-07-04T01:00:43.819Z,81.84
2017-07-04T01:01:43.825Z,81.95
2017-07-04T01:02:43.875Z,81.95
2017-07-04T01:03:43.871Z,81.98
2017-07-04T01:04:43.907Z,82.37
2017-07-04T01:05:43.907Z,82.59
2017-07-04T01:06:43.906Z,82.69
2017-07-04T01:07:43.876Z,82.59
2017-07-04T01:08:43.831Z,82.48
2017-07-04T01:09:43.831Z,82.88
2017-07-04T01:10:43.897Z,83.01
2017-07-04T01:11:43.926Z,84.89
2017-07-04T01:12:43.880Z,85.27
2017-07-04T01:13:43.926Z,85.77
2017-07-04T01:14:43.881Z,85.08
2017-07-04T01:15:43.916Z,85.85
2017-07-04T01:16:43.923Z,86.68
2017-07-04T01:17:43.825Z,87.45
2017-07-04T01:18:43.919Z,87.67
2017-07-04T01:19:43.827Z,88.07
2017-07-04T01:20:43.924Z,88.04
2017-07-04T01:21:43.827Z,87.96
2017-07-04T01:22:43.923Z,87.93
2017-07-04T01:23:43.922Z,88.09
2017-07-04T01:24:43.924Z,87.88
2017-07-04T01:25:43.857Z,87.85
2017-07-04T01:26:43.874Z,88.46
2017-07-04T01:27:43.894Z,88.04
2017-07-04T01:28:43.894Z,88.57
2017-07-04T01:29:43.895Z,88.87
2017-07-04T01:30:43.980Z,89.00
2017-07-04T01:31:43.896Z,89.29
2017-07-04T01:32:43.896Z,89.40
2017-07-04T01:33:43.897Z,89.27
2017-07-04T01:34:43.899Z,89.27
2017-07-04T01:35:43.899Z,89.24
2017-07-04T01:36:43.899Z,89.45
2017-07-04T01:37:43.840Z,89.48
2017-07-04T01:38:43.933Z,89.67
2017-07-04T01:39:43.934Z,89.54
2017-07-04T01:40:43.849Z,90.23
2017-07-04T01:41:43.924Z,90.13
2017-07-04T01:42:43.863Z,90.31
2017-07-04T01:43:43.851Z,90.07
2017-07-04T01:44:43.937Z,90.18
2017-07-04T01:45:43.930Z,89.94
2017-07-04T01:46:43.855Z,90.28
2017-07-04T01:47:43.879Z,90.02
2017-07-04T01:48:43.889Z,89.97
2017-07-04T01:49:43.888Z,89.64
2017-07-04T01:50:43.876Z,89.40
2017-07-04T01:51:43.874Z,89.45
2017-07-04T01:52:43.894Z,89.80
2017-07-04T01:53:43.880Z,89.54
2017-07-04T01:54:43.880Z,89.91
2017-07-04T01:55:43.874Z,89.27
2017-07-04T01:56:43.878Z,88.84
2017-07-04T01:57:43.928Z,88.73
2017-07-04T01:58:43.837Z,88.50
2017-07-04T01:59:43.928Z,88.76
2017-07-04T02:00:43.927Z,88.73
2017-07-04T02:01:43.925Z,88.92
2017-07-04T02:02:43.927Z,88.84
2017-07-04T02:03:43.930Z,89.54
2017-07-04T02:04:44.029Z,89.29
2017-07-04T02:05:43.926Z,89.94
2017-07-04T02:06:43.923Z,90.42
2017-07-04T02:07:43.856Z,90.77
2017-07-04T02:08:43.867Z,91.52
2017-07-04T02:09:43.950Z,92.14
2017-07-04T02:10:43.929Z,92.35
2017-07-04T02:11:43.868Z,92.59
2017-07-04T02:12:43.949Z,92.62
2017-07-04T02:13:43.858Z,92.91
2017-07-04T02:14:43.954Z,93.32
2017-07-04T02:15:43.949Z,93.21
2017-07-04T02:16:43.958Z,93.59
2017-07-04T02:17:43.921Z,93.81
2017-07-04T02:18:43.925Z,93.78
2017-07-04T02:19:43.925Z,93.67
2017-07-04T02:20:43.918Z,93.51
2017-07-04T02:21:43.922Z,94.15
2017-07-04T02:22:43.923Z,94.80
2017-07-04T02:23:43.926Z,95.42
2017-07-04T02:24:43.927Z,95.37
2017-07-04T02:25:43.922Z,96.15
2017-07-04T02:26:43.926Z,96.50
2017-07-04T02:27:43.958Z,96.50
2017-07-04T02:28:43.944Z,97.28
2017-07-04T02:29:43.965Z,97.28
2017-07-04T02:30:43.966Z,97.50
2017-07-04T02:31:43.963Z,97.34
2017-07-04T02:32:43.940Z,97.21
2017-07-04T02:33:43.940Z,97.61
2017-07-04T02:34:43.877Z,98.26
2017-07-04T02:35:43.871Z,98.96
2017-07-04T02:36:43.959Z,98.99
2017-07-04T02:37:43.949Z,99.04
2017-07-04T02:38:43.859Z,99.21
2017-07-04T02:39:43.942Z,99.32
2017-07-04T02:40:43.972Z,99.26
2017-07-04T02:41:43.946Z,99.02
2017-07-04T02:42:43.951Z,98.85
2017-07-04T02:43:43.943Z,98.99
2017-07-04T02:44:43.947Z,99.13
2017-07-04T02:45:44.030Z,99.53
2017-07-04T02:46:43.973Z,99.29
2017-07-04T02:47:43.924Z,99.23
2017-07-04T02:48:43.926Z,99.56
2017-07-04T02:49:43.965Z,99.56
2017-07-04T02:50:43.969Z,99.62
2017-07-04T02:51:43.884Z,99.59
2017-07-04T02:52:43.964Z,99.96
2017-07-04T02:53:43.878Z,99.99
2017-07-04T02:54:43.976Z,99.99
2017-07-04T02:55:43.886Z,99.99
2017-07-04T02:56:43.968Z,99.99
2017-07-04T02:57:43.937Z,99.99
2017-07-04T02:58:43.890Z,99.99
2017-07-04T02:59:43.911Z,99.99
2017-07-04T03:00:43.943Z,99.99
2017-07-04T03:01:43.937Z,99.99
2017-07-04T03:02:43.991Z,99.99
2017-07-04T03:03:43.978Z,99.99
2017-07-04T03:04:43.968Z,99.99
2017-07-04T03:05:43.981Z,99.99
2017-07-04T03:06:44.024Z,99.99
2017-07-04T03:07:43.982Z,99.99
2017-07-04T03:08:43.982Z,99.99
2017-07-04T03:09:43.972Z,99.99
2017-07-04T03:10:43.973Z,99.99
2017-07-04T03:11:43.979Z,99.99
2017-07-04T03:12:43.976Z,99.99
2017-07-04T03:13:43.899Z,99.99
2017-07-04T03:14:43.905Z,99.99
2017-07-04T03:15:43.914Z,99.99
2017-07-04T03:16:43.953Z,99.99
2017-07-04T03:17:43.983Z,99.99
2017-07-04T03:18:43.982Z,99.99
2017-07-04T03:19:43.977Z,99.99
2017-07-04T03:20:43.991Z,99.99
2017-07-04T03:21:43.965Z,99.99
2017-07-04T03:22:43.904Z,99.99
2017-07-04T03:23:43.981Z,99.99
2017-07-04T03:24:43.986Z,99.99
2017-07-04T03:25:43.919Z,99.99
2017-07-04T03:26:43.980Z,99.99
2017-07-04T03:27:43.995Z,99.99
2017-07-04T03:28:43.982Z,99.99
2017-07-04T03:29:43.988Z,99.99
2017-07-04T03:30:43.913Z,99.99
2017-07-04T03:31:43.968Z,99.99
2017-07-04T03:32:43.911Z,99.99
2017-07-04T03:33:43.908Z,99.99
2017-07-04T03:34:43.991Z,99.99
2017-07-04T03:35:43.951Z,99.99
2017-07-04T03:36:43.953Z,99.99
2017-07-04T03:37:43.953Z,99.99
2017-07-04T03:38:43.979Z,99.99
2017-07-04T03:39:43.979Z,99.99
2017-07-04T03:40:43.976Z,99.99
2017-07-04T03:41:43.999Z,99.99
2017-07-04T03:42:43.982Z,99.99
2017-07-04T03:43:43.980Z,99.99
2017-07-04T03:44:43.981Z,99.99
2017-07-04T03:45:43.975Z,99.99
2017-07-04T03:46:43.980Z,99.99
2017-07-04T03:47:43.977Z,99.99
2017-07-04T03:48:43.980Z,99.99
2017-07-04T03:49:43.983Z,99.99
2017-07-04T03:50:43.985Z,99.99
2017-07-04T03:51:43.980Z,99.99
2017-07-04T03:52:43.983Z,99.99
2017-07-04T03:53:43.990Z,99.99
2017-07-04T03:54:43.984Z,99.99
2017-07-04T03:55:43.986Z,99.99
2017-07-04T03:56:43.984Z,99.99
2017-07-04T03:57:43.991Z,99.99
2017-07-04T03:58:44.005Z,99.99
2017-07-04T03:59:44.013Z,99.99
2017-07-04T04:00:43.924Z,99.99
2017-07-04T04:01:44.005Z,99.99
2017-07-04T04:02:43.919Z,99.99
2017-07-04T04:03:44.012Z,99.99
2017-07-04T04:04:44.005Z,99.99
2017-07-04T04:05:43.925Z,99.99
2017-07-04T04:06:43.984Z,99.99
2017-07-04T04:07:43.970Z,99.99
2017-07-04T04:08:44.004Z,99.99
2017-07-04T04:09:44.003Z,99.99
2017-07-04T04:10:44.023Z,99.99
2017-07-04T04:11:44.016Z,99.99
2017-07-04T04:12:44.007Z,99.99
2017-07-04T04:13:44.020Z,99.99
2017-07-04T04:14:43.925Z,99.99
2017-07-04T04:15:43.973Z,99.99
2017-07-04T04:16:43.926Z,99.99
2017-07-04T04:17:43.975Z,99.99
2017-07-04T04:18:43.997Z,99.99
2017-07-04T04:19:43.998Z,99.99
2017-07-04T04:20:43.997Z,99.99
2017-07-04T04:21:43.916Z,99.99
2017-07-04T04:22:43.999Z,99.99
2017-07-04T04:23:44.000Z,99.99
2017-07-04T04:24:43.999Z,99.99
2017-07-04T04:25:44.034Z,99.99
2017-07-04T04:26:44.001Z,99.99
2017-07-04T04:27:44.004Z,99.99
2017-07-04T04:28:44.025Z,99.99
2017-07-04T04:29:44.010Z,99.99
2017-07-04T04:30:44.033Z,99.99
2017-07-04T04:31:44.015Z,99.99
2017-07-04T04:32:44.005Z,99.99
2017-07-04T04:33:44.024Z,99.99
2017-07-04T04:34:44.031Z,99.99
2017-07-04T04:35:44.032Z,99.99
2017-07-04T04:36:43.943Z,99.99
2017-07-04T04:37:43.936Z,99.99
2017-07-04T04:38:44.001Z,99.99
2017-07-04T04:39:43.912Z,99.99
2017-07-04T04:40:43.891Z,99.99
2017-07-04T04:41:43.888Z,99.99
2017-07-04T04:42:43.916Z,99.99
2017-07-04T04:43:44.009Z,99.99
2017-07-04T04:44:43.954Z,99.99
2017-07-04T04:45:43.939Z,99.99
2017-07-04T04:46:43.896Z,99.99
2017-07-04T04:47:43.923Z,99.99
2017-07-04T04:48:44.038Z,99.83
2017-07-04T04:49:44.030Z,99.72
2017-07-04T04:50:44.032Z,99.70
2017-07-04T04:51:43.958Z,99.62
2017-07-04T04:52:44.037Z,99.62
2017-07-04T04:53:44.049Z,99.48
2017-07-04T04:54:43.994Z,99.45
2017-07-04T04:55:44.037Z,99.34
2017-07-04T04:56:44.037Z,99.26
2017-07-04T04:58:44.023Z,98.77
2017-07-04T04:59:44.038Z,98.72
2017-07-04T05:00:44.043Z,98.61
2017-07-04T05:01:43.973Z,98.53
2017-07-04T05:02:44.040Z,98.37
2017-07-04T05:03:44.053Z,98.04
2017-07-04T05:04:44.036Z,98.07
2017-07-04T05:05:43.960Z,97.91
2017-07-04T05:06:44.040Z,97.23
2017-07-04T05:07:44.025Z,96.99
2017-07-04T05:08:44.013Z,96.55
2017-07-04T05:09:44.012Z,96.85
2017-07-04T05:10:44.017Z,96.64
2017-07-04T05:11:44.013Z,96.53
2017-07-04T05:12:44.014Z,96.34
2017-07-04T05:13:44.014Z,96.36
2017-07-04T05:14:44.010Z,96.04
2017-07-04T05:15:44.015Z,95.66
2017-07-04T05:16:44.019Z,95.28
2017-07-04T05:17:44.021Z,95.28
2017-07-04T05:18:44.050Z,95.07
2017-07-04T05:19:44.057Z,94.10
2017-07-04T05:20:43.962Z,94.21
2017-07-04T05:21:44.050Z,94.56
2017-07-04T05:22:44.047Z,94.53
2017-07-04T05:23:44.031Z,93.99
2017-07-04T05:24:43.967Z,94.21
2017-07-04T05:25:43.971Z,94.15
2017-07-04T05:26:44.052Z,93.99
2017-07-04T05:27:44.053Z,93.72
2017-07-04T05:28:44.035Z,92.91
2017-07-04T05:29:44.040Z,92.99
2017-07-04T05:30:44.069Z,93.10
2017-07-04T05:31:44.041Z,93.37
2017-07-04T05:32:44.038Z,92.78
2017-07-04T05:33:44.043Z,93.02
2017-07-04T05:34:44.041Z,93.16
2017-07-04T05:35:44.049Z,93.21
2017-07-04T05:36:44.042Z,93.10
2017-07-04T05:37:44.047Z,92.11
2017-07-04T05:38:44.048Z,92.65
2017-07-04T05:39:44.062Z,92.46
2017-07-04T05:40:44.027Z,92.32
2017-07-04T05:41:43.981Z,92.51
2017-07-04T05:42:44.075Z,91.97
2017-07-04T05:43:44.065Z,91.57
2017-07-04T05:44:43.983Z,90.61
2017-07-04T05:45:44.077Z,91.01
2017-07-04T05:46:44.070Z,90.58
2017-07-04T05:47:44.066Z,91.09
2017-07-04T05:48:44.052Z,91.28
2017-07-04T05:49:44.052Z,90.05
2017-07-04T05:50:44.054Z,90.47
2017-07-04T05:51:44.050Z,89.86
2017-07-04T05:52:44.062Z,89.59
2017-07-04T05:53:44.048Z,88.36
2017-07-04T05:54:44.058Z,88.17
2017-07-04T05:55:44.051Z,87.00
2017-07-04T05:56:44.051Z,87.53
2017-07-04T05:57:44.051Z,86.28
2017-07-04T05:58:44.077Z,84.87
2017-07-04T05:59:44.071Z,82.16
2017-07-04T06:00:43.987Z,81.84
2017-07-04T06:01:44.075Z,81.26
2017-07-04T06:02:44.033Z,80.73
2017-07-04T06:03:44.080Z,79.02
2017-07-04T06:04:43.999Z,78.73
2017-07-04T06:05:43.994Z,79.86
2017-07-04T06:06:44.057Z,79.47
2017-07-04T06:07:44.077Z,78.65
2017-07-04T06:08:44.080Z,78.23
2017-07-04T06:09:43.989Z,79.97
2017-07-04T06:10:44.084Z,78.67
2017-07-04T06:11:44.083Z,79.05
2017-07-04T06:12:44.077Z,80.02
2017-07-04T06:13:44.041Z,79.94
2017-07-04T06:14:43.990Z,80.68
2017-07-04T06:15:43.999Z,79.44
2017-07-04T06:16:44.082Z,80.39
2017-07-04T06:17:44.089Z,81.21
2017-07-04T06:18:44.061Z,78.83
2017-07-04T06:19:44.089Z,78.23
2017-07-04T06:20:44.001Z,79.20
2017-07-04T06:21:44.090Z,78.54
2017-07-04T06:22:44.096Z,78.81
2017-07-04T06:23:44.097Z,78.44
2017-07-04T06:24:44.005Z,78.49
2017-07-04T06:25:44.092Z,78.91
2017-07-04T06:26:44.085Z,78.52
2017-07-04T06:27:44.088Z,79.17
2017-07-04T06:28:44.087Z,78.89
2017-07-04T06:29:44.085Z,78.89
2017-07-04T06:30:44.048Z,80.41
2017-07-04T06:31:44.089Z,79.65
2017-07-04T06:32:44.005Z,78.59
2017-07-04T06:33:44.091Z,79.17
2017-07-04T06:34:44.071Z,78.49
2017-07-04T06:35:44.090Z,78.36
2017-07-04T06:36:44.093Z,78.33
2017-07-04T06:37:44.036Z,78.12
2017-07-04T06:38:44.001Z,79.25
2017-07-04T06:39:44.039Z,78.70
2017-07-04T06:40:44.001Z,77.36
2017-07-04T06:41:44.033Z,77.51
2017-07-04T06:42:44.037Z,75.84
2017-07-04T06:43:44.000Z,77.12
2017-07-04T06:44:43.990Z,78.28
2017-07-04T06:45:44.045Z,77.62
2017-07-04T06:46:43.999Z,77.65
2017-07-04T06:47:44.053Z,78.17
2017-07-04T06:48:44.084Z,78.01
2017-07-04T06:49:44.085Z,79.36
2017-07-04T06:50:44.083Z,77.57
2017-07-04T06:51:44.084Z,77.99
2017-07-04T06:52:44.082Z,77.89
2017-07-04T06:53:44.084Z,79.25
2017-07-04T06:54:44.085Z,80.23
2017-07-04T06:55:44.098Z,80.73
2017-07-04T06:56:44.083Z,79.52
2017-07-04T06:57:44.087Z,79.68
2017-07-04T06:58:44.013Z,79.20
2017-07-04T06:59:44.110Z,78.65
2017-07-04T07:00:44.017Z,78.78
2017-07-04T07:01:44.107Z,80.36
2017-07-04T07:02:44.029Z,79.05
2017-07-04T07:03:44.088Z,79.39
2017-07-04T07:04:44.086Z,79.55
2017-07-04T07:05:44.105Z,76.70
2017-07-04T07:06:44.087Z,76.73
2017-07-04T07:07:44.108Z,78.33
2017-07-04T07:08:44.069Z,76.41
2017-07-04T07:09:44.079Z,77.23
2017-07-04T07:10:44.083Z,76.62
2017-07-04T07:11:44.081Z,77.23
2017-07-04T07:12:44.085Z,77.17
2017-07-04T07:13:44.081Z,77.23
2017-07-04T07:14:44.109Z,77.49
2017-07-04T07:15:44.086Z,77.70
2017-07-04T07:16:44.087Z,78.15
2017-07-04T07:17:44.094Z,77.89
2017-07-04T07:18:44.117Z,78.94
2017-07-04T07:19:44.119Z,77.15
2017-07-04T07:20:44.115Z,77.67
2017-07-04T07:21:44.036Z,77.54
2017-07-04T07:22:44.128Z,76.57
2017-07-04T07:23:44.128Z,77.59
2017-07-04T07:24:44.140Z,78.09
2017-07-04T07:25:44.081Z,77.41
2017-07-04T07:26:44.130Z,76.78
2017-07-04T07:27:44.055Z,76.46
2017-07-04T07:28:44.034Z,76.89
2017-07-04T07:29:44.107Z,75.96
2017-07-04T07:30:44.105Z,76.70
2017-07-04T07:31:44.105Z,75.84
2017-07-04T07:32:44.110Z,74.55
2017-07-04T07:33:44.108Z,74.94
2017-07-04T07:34:44.115Z,74.58
2017-07-04T07:35:44.104Z,75.15
2017-07-04T07:36:44.119Z,76.62
2017-07-04T07:37:44.108Z,73.87
2017-07-04T07:38:44.120Z,74.26
2017-07-04T07:39:44.125Z,73.32
2017-07-04T07:40:44.072Z,73.30
2017-07-04T07:41:44.046Z,72.67
2017-07-04T07:42:44.130Z,71.49
2017-07-04T07:43:44.139Z,71.13
2017-07-04T07:44:44.119Z,72.41
2017-07-04T07:45:44.129Z,71.78
2017-07-04T07:46:44.106Z,71.52
2017-07-04T07:47:44.046Z,71.52
2017-07-04T07:48:44.131Z,70.74
2017-07-04T07:49:44.003Z,70.43
2017-07-04T07:50:44.091Z,71.13
2017-07-04T07:51:44.102Z,70.35
2017-07-04T07:52:44.106Z,70.11
2017-07-04T07:53:44.033Z,70.74
2017-07-04T07:54:44.013Z,69.62
2017-07-04T07:55:44.014Z,71.91
2017-07-04T07:56:44.026Z,70.60
2017-07-04T07:57:44.018Z,71.91
2017-07-04T07:58:44.106Z,71.42
2017-07-04T07:59:44.144Z,71.91
2017-07-04T08:00:44.142Z,71.15
2017-07-04T08:01:44.162Z,72.48
2017-07-04T08:02:44.125Z,71.86
2017-07-04T08:03:44.063Z,70.97
2017-07-04T08:04:44.145Z,72.09
2017-07-04T08:05:44.141Z,71.39
2017-07-04T08:06:44.124Z,73.19
2017-07-04T08:07:44.123Z,71.34
2017-07-04T08:08:44.156Z,71.13
2017-07-04T08:09:44.052Z,70.92
2017-07-04T08:10:44.066Z,70.66
2017-07-04T08:11:44.128Z,70.76
2017-07-04T08:12:44.144Z,69.41
2017-07-04T08:13:44.146Z,70.29
2017-07-04T08:14:44.066Z,70.53
2017-07-04T08:15:44.148Z,71.13
2017-07-04T08:16:44.147Z,71.75
2017-07-04T08:17:44.169Z,71.91
2017-07-04T08:18:44.110Z,71.31
2017-07-04T08:19:44.121Z,71.28
2017-07-04T08:20:44.118Z,70.64
2017-07-04T08:21:44.119Z,69.41
2017-07-04T08:22:44.103Z,72.33
2017-07-04T08:23:44.116Z,70.19
2017-07-04T08:24:44.122Z,71.67
2017-07-04T08:25:44.120Z,70.89
2017-07-04T08:26:44.122Z,69.62
2017-07-04T08:27:44.123Z,70.76
2017-07-04T08:28:44.122Z,69.54
2017-07-04T08:29:44.139Z,70.09
2017-07-04T08:30:44.139Z,68.58
2017-07-04T08:31:44.137Z,69.98
2017-07-04T08:32:44.138Z,70.27
2017-07-04T08:33:44.148Z,71.52
2017-07-04T08:34:44.246Z,71.78
2017-07-04T08:35:44.139Z,70.64
2017-07-04T08:36:44.147Z,70.17
2017-07-04T08:37:44.149Z,71.42
2017-07-04T08:38:44.144Z,71.52
2017-07-04T08:39:44.164Z,70.29
2017-07-04T08:40:44.275Z,72.51
2017-07-04T08:41:44.082Z,72.64
2017-07-04T08:42:44.158Z,73.11
2017-07-04T08:43:44.171Z,72.64
2017-07-04T08:44:44.122Z,71.65
2017-07-04T08:45:44.146Z,73.06
2017-07-04T08:46:44.081Z,71.34
2017-07-04T08:47:44.178Z,72.20
2017-07-04T08:48:44.147Z,71.89
2017-07-04T08:49:44.137Z,72.43
2017-07-04T08:50:44.134Z,72.53
2017-07-04T08:51:44.136Z,72.04
2017-07-04T08:52:44.137Z,73.14
2017-07-04T08:53:44.144Z,72.53
2017-07-04T08:54:44.139Z,71.65
2017-07-04T08:55:44.144Z,72.53
2017-07-04T08:56:44.140Z,70.82
2017-07-04T08:57:44.146Z,71.91
2017-07-04T08:58:44.140Z,72.28
2017-07-04T08:59:44.170Z,72.80
2017-07-04T09:00:44.177Z,71.36
2017-07-04T09:01:44.251Z,71.15
2017-07-04T09:02:44.164Z,70.43
2017-07-04T09:03:44.153Z,72.46
2017-07-04T09:04:44.169Z,71.96
2017-07-04T09:05:44.093Z,69.85
2017-07-04T09:06:44.177Z,72.43
2017-07-04T09:07:44.175Z,68.94
2017-07-04T09:08:44.186Z,67.62
2017-07-04T09:09:44.083Z,68.45
2017-07-04T09:10:44.132Z,69.30
2017-07-04T09:11:44.083Z,69.41
2017-07-04T09:12:44.120Z,69.05
2017-07-04T09:13:44.059Z,70.11
2017-07-04T09:14:44.067Z,69.38
2017-07-04T09:15:44.081Z,68.29
2017-07-04T09:16:44.168Z,68.60
2017-07-04T09:17:44.189Z,70.06
2017-07-04T09:18:44.168Z,68.50
2017-07-04T09:19:44.154Z,68.27
2017-07-04T09:20:44.158Z,68.22
2017-07-04T09:21:44.153Z,67.91
2017-07-04T09:22:44.156Z,66.04
2017-07-04T09:23:44.150Z,65.76
2017-07-04T09:24:44.157Z,67.23
2017-07-04T09:25:44.156Z,64.38
2017-07-04T09:26:44.156Z,65.45
2017-07-04T09:27:44.153Z,66.45
2017-07-04T09:28:44.158Z,64.10
2017-07-04T09:29:44.158Z,66.69
2017-07-04T09:30:44.160Z,65.91
2017-07-04T09:31:44.161Z,64.54
2017-07-04T09:32:44.158Z,65.73
2017-07-04T09:33:44.166Z,67.02
2017-07-04T09:34:44.163Z,66.53
2017-07-04T09:35:44.161Z,66.58
2017-07-04T09:36:44.160Z,65.89
2017-07-04T09:37:44.160Z,65.06
2017-07-04T09:38:44.163Z,65.68
2017-07-04T09:39:44.159Z,66.69
2017-07-04T09:40:44.164Z,65.16
2017-07-04T09:41:44.160Z,65.96
2017-07-04T09:42:44.166Z,66.64
2017-07-04T09:43:44.160Z,66.56
2017-07-04T09:44:44.162Z,65.62
2017-07-04T09:45:44.163Z,68.32
2017-07-04T09:46:44.166Z,66.27
2017-07-04T09:47:44.163Z,67.49
2017-07-04T09:48:44.170Z,69.54
2017-07-04T09:49:44.195Z,67.31
2017-07-04T09:50:44.116Z,67.05
2017-07-04T09:51:44.197Z,67.49
2017-07-04T09:52:44.195Z,69.07
2017-07-04T09:53:44.201Z,68.47
2017-07-04T09:54:44.105Z,66.33
2017-07-04T09:55:44.203Z,65.55
2017-07-04T09:56:44.208Z,65.50
2017-07-04T09:57:44.213Z,64.42
2017-07-04T09:58:44.206Z,64.10
2017-07-04T09:59:44.113Z,62.66
2017-07-04T10:00:44.213Z,62.79
2017-07-04T10:01:44.202Z,62.33
2017-07-04T10:02:44.164Z,63.15
2017-07-04T10:03:44.123Z,64.18
2017-07-04T10:04:44.122Z,65.39
2017-07-04T10:05:44.215Z,65.47
2017-07-04T10:06:44.118Z,63.82
2017-07-04T10:07:44.203Z,66.14
2017-07-04T10:08:44.121Z,65.26
2017-07-04T10:09:44.250Z,67.02
2017-07-04T10:10:44.218Z,64.95
2017-07-04T10:11:44.132Z,63.43
2017-07-04T10:12:44.124Z,62.99
2017-07-04T10:13:44.183Z,63.59
2017-07-04T10:14:44.130Z,63.38
2017-07-04T10:15:44.216Z,64.38
2017-07-04T10:16:44.221Z,65.16
2017-07-04T10:17:44.278Z,66.45
2017-07-04T10:18:44.219Z,66.22
2017-07-04T10:19:44.195Z,65.76
2017-07-04T10:20:44.139Z,68.40
2017-07-04T10:21:44.135Z,64.44
2017-07-04T10:22:44.210Z,63.54
2017-07-04T10:23:44.199Z,64.98
2017-07-04T10:24:44.198Z,64.13
2017-07-04T10:25:44.214Z,62.40
2017-07-04T10:26:44.218Z,62.71
2017-07-04T10:27:44.223Z,62.18
2017-07-04T10:28:44.220Z,61.40
2017-07-04T10:29:44.187Z,61.97
2017-07-04T10:30:44.192Z,62.99
2017-07-04T10:31:44.188Z,62.66
2017-07-04T10:32:44.192Z,63.85
2017-07-04T10:33:44.194Z,63.49
2017-07-04T10:34:44.197Z,63.85
2017-07-04T10:35:44.194Z,64.42
2017-07-04T10:36:44.192Z,67.00
2017-07-04T10:37:44.194Z,65.47
2017-07-04T10:38:44.201Z,65.55
2017-07-04T10:39:44.194Z,64.08
2017-07-04T10:40:44.196Z,65.14
2017-07-04T10:41:44.198Z,65.24
2017-07-04T10:42:44.198Z,66.20
2017-07-04T10:43:44.196Z,65.42
2017-07-04T10:44:44.197Z,64.13
2017-07-04T10:45:44.201Z,64.00
2017-07-04T10:46:44.197Z,64.23
2017-07-04T10:47:44.200Z,66.69
2017-07-04T10:48:44.200Z,63.87
2017-07-04T10:49:44.200Z,67.25
2017-07-04T10:50:44.153Z,64.49
2017-07-04T10:51:44.154Z,66.45
2017-07-04T10:52:44.230Z,66.40
2017-07-04T10:53:44.230Z,66.17
2017-07-04T10:54:44.151Z,65.76
2017-07-04T10:55:44.227Z,67.05
2017-07-04T10:56:44.235Z,66.14
2017-07-04T10:57:44.178Z,64.75
2017-07-04T10:58:44.242Z,66.33
2017-07-04T10:59:44.231Z,63.62
2017-07-04T11:00:44.243Z,66.45
2017-07-04T11:01:44.239Z,62.46
2017-07-04T11:02:44.243Z,62.02
2017-07-04T11:03:44.180Z,62.61
2017-07-04T11:04:44.190Z,62.77
2017-07-04T11:05:44.215Z,61.84
2017-07-04T11:06:44.246Z,61.56
2017-07-04T11:07:44.223Z,62.63
2017-07-04T11:08:44.235Z,61.43
2017-07-04T11:09:44.163Z,63.05
2017-07-04T11:10:44.165Z,62.22
2017-07-04T11:11:44.155Z,63.74
2017-07-04T11:12:44.249Z,63.10
2017-07-04T11:13:44.190Z,62.90
2017-07-04T11:14:44.157Z,63.49
2017-07-04T11:15:44.253Z,61.33
2017-07-04T11:16:44.157Z,59.35
2017-07-04T11:17:44.168Z,62.77
2017-07-04T11:18:44.168Z,62.56
2017-07-04T11:19:44.159Z,60.73
2017-07-04T11:20:44.226Z,60.61
2017-07-04T11:21:44.265Z,60.33
2017-07-04T11:22:44.161Z,62.14
2017-07-04T11:23:44.163Z,61.04
2017-07-04T11:24:44.231Z,60.12
2017-07-04T11:25:44.258Z,60.37
2017-07-04T11:26:44.172Z,60.43
2017-07-04T11:27:44.211Z,58.87
2017-07-04T11:28:44.161Z,57.99
2017-07-04T11:29:44.164Z,56.61
2017-07-04T11:30:44.262Z,59.25
2017-07-04T11:31:44.178Z,56.41
2017-07-04T11:32:44.251Z,58.25
2017-07-04T11:33:44.263Z,59.68
2017-07-04T11:34:44.260Z,58.07
2017-07-04T11:35:44.177Z,56.33
2017-07-04T11:36:44.265Z,55.91
2017-07-04T11:37:44.262Z,55.96
2017-07-04T11:38:44.174Z,56.21
2017-07-04T11:39:44.201Z,58.07
2017-07-04T11:40:44.175Z,57.61
2017-07-04T11:41:44.264Z,58.92
2017-07-04T11:42:44.176Z,58.46
2017-07-04T11:43:44.264Z,58.68
2017-07-04T11:44:44.172Z,58.68
2017-07-04T11:45:44.238Z,58.02
2017-07-04T11:46:44.259Z,59.61
2017-07-04T11:47:44.265Z,58.71
2017-07-04T11:48:44.178Z,57.87
2017-07-04T11:49:44.186Z,57.41
2017-07-04T11:50:44.220Z,58.12
2017-07-04T11:51:44.263Z,56.13
2017-07-04T11:52:44.180Z,54.45
2017-07-04T11:53:44.265Z,54.08
2017-07-04T11:54:44.269Z,55.47
2017-07-04T11:55:44.273Z,54.53
2017-07-04T11:56:44.264Z,53.95
2017-07-04T11:57:44.270Z,54.91
2017-07-04T11:58:44.275Z,55.47
2017-07-04T11:59:44.276Z,56.74
2017-07-04T12:00:44.254Z,55.60
2017-07-04T12:01:44.253Z,57.08
2017-07-04T12:02:44.250Z,55.42
2017-07-04T12:03:44.253Z,53.97
2017-07-04T12:04:44.252Z,54.48
2017-07-04T12:05:44.257Z,55.22
2017-07-04T12:06:44.254Z,54.33
2017-07-04T12:07:44.252Z,54.83
2017-07-04T12:08:44.252Z,55.32
2017-07-04T12:09:44.255Z,54.37
2017-07-04T12:10:44.259Z,54.66
2017-07-04T12:11:44.260Z,54.00
2017-07-04T12:12:44.300Z,53.21
2017-07-04T12:13:44.259Z,53.77
2017-07-04T12:14:44.269Z,52.50
2017-07-04T12:15:44.259Z,53.11
2017-07-04T12:16:44.262Z,52.96
2017-07-04T12:17:44.183Z,53.36
2017-07-04T12:18:44.265Z,55.24
2017-07-04T12:19:44.266Z,54.81
2017-07-04T12:20:44.251Z,56.87
2017-07-04T12:21:44.253Z,55.91
2017-07-04T12:22:44.251Z,55.47
2017-07-04T12:23:44.255Z,55.32
2017-07-04T12:24:44.253Z,55.80
2017-07-04T12:25:44.258Z,54.94
2017-07-04T12:26:44.255Z,55.17
2017-07-04T12:27:44.255Z,54.89
2017-07-04T12:28:44.256Z,53.64
2017-07-04T12:29:44.257Z,55.96
2017-07-04T12:30:44.272Z,55.06
2017-07-04T12:31:44.282Z,54.61
2017-07-04T12:32:44.282Z,54.50
2017-07-04T12:33:44.291Z,53.09
2017-07-04T12:34:44.283Z,54.76
2017-07-04T12:35:44.291Z,51.39
2017-07-04T12:36:44.216Z,52.96
2017-07-04T12:37:44.298Z,53.75
2017-07-04T12:38:44.215Z,54.23
2017-07-04T12:39:44.299Z,53.77
2017-07-04T12:40:44.276Z,52.57
2017-07-04T12:41:44.278Z,52.45
2017-07-04T12:42:44.297Z,52.96
2017-07-04T12:43:44.275Z,50.96
2017-07-04T12:44:44.277Z,52.20
2017-07-04T12:45:44.280Z,53.69
2017-07-04T12:46:44.281Z,53.49
2017-07-04T12:47:44.280Z,52.30
2017-07-04T12:48:44.294Z,52.40
2017-07-04T12:49:44.281Z,52.12
2017-07-04T12:50:44.282Z,51.79
2017-07-04T12:51:44.284Z,52.22
2017-07-04T12:52:44.285Z,52.10
2017-07-04T12:53:44.281Z,53.97